Seaside, Oregon
Current Conditions -  °F | °C
As of 3:03 AM on Thursday 27 Nov 2014 (Local Time) from KAST Reporting Station
Light Rain Light Rain  
Wind Chill: 57°   Ceiling: 800
Heat Index: 57°   Visibility: 4mi
Dew Point: 55°   Wind: 17mph
Humidity: 93%   Direction: 220°SW
Pressure: 29.89"   Gusts: 38mph
Location:  45.99°N, 123.91°W
Report Text: KAST 271103Z AUTO 22015G33KT 4SM -RA BR BKN008 OVC013 14/13 A2989 RMK AO2 PK WND 20033/1059 P0000 T01390128
Loading
Personal Weather Stations






























Interactive Weather Map New forecast layout! Learn more

10-Day Weather Forecast

Advertisements
Track Severe Weather on mobile